Time;durP1;ratioP1;P1;durP2;ratioP2;P2;SDS_P1;SDS_P2;PMS_P1;PMS_P2;Temp;Humidity;BMP_temperature;BMP_pressure;BME280_temperature;BME280_humidity;BME280_pressure;Samples;Min_cycle;Max_cycle;Signal;HPM_P1;HPM_P2
2023/11/11 00:02:01;;;;;;;2.25;0.40;;;;;;;-146.27;85.36;32979.88;5028443;28;20059;-67
2023/11/11 00:04:27;;;;;;;6.68;0.70;;;;;;;-146.27;85.43;32985.84;5032362;28;20531;-67
2023/11/11 00:06:52;;;;;;;4.57;0.80;;;;;;;-146.27;85.78;32975.91;5018841;28;20021;-66
2023/11/11 00:09:18;;;;;;;4.88;0.60;;;;;;;-146.27;85.53;32860.84;5028534;28;20655;-66
2023/11/11 00:11:44;;;;;;;4.68;0.80;;;;;;;-146.27;85.67;32962.03;5028596;28;20397;-66
2023/11/11 00:14:11;;;;;;;3.22;0.52;;;;;;;-146.27;86.15;32964.00;5031438;28;20080;-68
2023/11/11 00:16:37;;;;;;;9.23;0.93;;;;;;;-146.27;86.17;32934.25;5022105;28;20037;-67
2023/11/11 00:19:02;;;;;;;2.72;0.73;;;;;;;-146.27;86.04;32878.72;5027424;28;20037;-68
2023/11/11 00:21:28;;;;;;;9.63;0.98;;;;;;;-146.27;86.10;32890.59;5027655;28;20714;-67
2023/11/11 00:23:57;;;;;;;6.03;0.68;;;;;;;-146.27;86.13;32884.66;5026071;28;20084;-67
2023/11/11 00:26:23;;;;;;;2.17;0.70;;;;;;;-146.27;86.12;32841.00;5040596;28;20036;-68
2023/11/11 00:28:48;;;;;;;13.68;1.27;;;;;;;-146.27;86.76;32890.59;5018736;28;20032;-68
2023/11/11 00:31:15;;;;;;;11.10;1.05;;;;;;;-146.27;86.28;32958.06;5037524;28;20025;-68
2023/11/11 00:33:42;;;;;;;1.85;0.50;;;;;;;-146.27;85.84;32954.09;5027106;28;20057;-68
2023/11/11 00:36:10;;;;;;;4.75;0.80;;;;;;;-146.27;85.90;32967.97;5017413;28;20025;-68
2023/11/11 00:38:36;;;;;;;3.38;0.85;;;;;;;-146.27;86.50;32964.00;5034502;28;20029;-68
2023/11/11 00:41:03;;;;;;;4.32;0.90;;;;;;;-146.27;86.84;32979.88;5038161;28;20093;-67
2023/11/11 00:43:29;;;;;;;9.77;0.80;;;;;;;-146.27;87.02;32981.88;5037794;28;20029;-68
2023/11/11 00:45:54;;;;;;;4.03;1.35;;;;;;;-146.27;86.94;33013.63;5040459;28;20505;-68
2023/11/11 00:48:19;;;;;;;4.95;0.65;;;;;;;-146.27;86.33;33011.63;5022681;28;20111;-68
2023/11/11 00:50:45;;;;;;;1.77;0.40;;;;;;;-146.27;85.89;33005.69;5027136;28;20056;-68
2023/11/11 00:53:11;;;;;;;2.78;0.45;;;;;;;-146.27;85.80;33009.66;5023433;28;20045;-67
2023/11/11 00:55:36;;;;;;;3.30;0.73;;;;;;;-146.27;85.50;32997.75;5029386;28;20033;-67
2023/11/11 00:58:01;;;;;;;2.38;0.40;;;;;;;-146.27;85.70;33005.69;5031622;28;20036;-66
2023/11/11 01:00:27;;;;;;;1.30;0.40;;;;;;;-146.27;85.88;33009.66;5042691;28;20029;-69
2023/11/11 01:02:54;;;;;;;3.83;0.77;;;;;;;-146.27;86.32;32981.88;5030712;28;20123;-68
2023/11/11 01:05:20;;;;;;;7.93;1.05;;;;;;;-146.27;86.59;33059.25;5022743;28;20116;-68
2023/11/11 01:07:47;;;;;;;5.45;0.70;;;;;;;-146.27;86.68;33045.34;5019234;28;20157;-69
2023/11/11 01:10:12;;;;;;;5.40;0.70;;;;;;;-146.27;86.59;33023.53;5030647;28;20078;-67
2023/11/11 01:12:38;;;;;;;6.57;0.90;;;;;;;-146.27;86.62;33075.13;5019637;28;20029;-68
2023/11/11 01:15:08;;;;;;;1.95;0.70;;;;;;;-146.27;86.70;33053.28;5028555;28;20025;-68
2023/11/11 01:17:35;;;;;;;4.10;0.47;;;;;;;-146.27;86.95;33057.25;5028423;28;20373;-68
2023/11/11 01:20:01;;;;;;;6.32;0.60;;;;;;;-146.27;87.05;33025.50;5035282;28;20524;-67
2023/11/11 01:22:26;;;;;;;2.35;0.60;;;;;;;-146.27;87.32;33065.19;5014388;28;20030;-68
2023/11/11 01:24:52;;;;;;;3.92;0.80;;;;;;;-146.27;87.85;33079.09;5019454;28;20090;-68
2023/11/11 01:27:18;;;;;;;8.43;0.73;;;;;;;-146.27;87.85;33065.19;5016660;28;20513;-67
2023/11/11 01:29:43;;;;;;;7.75;0.63;;;;;;;-146.27;87.76;33073.13;5042156;28;20033;-68
2023/11/11 01:32:09;;;;;;;4.78;0.63;;;;;;;-146.27;87.95;33128.69;5039369;28;20535;-68
2023/11/11 01:34:34;;;;;;;5.05;0.52;;;;;;;-146.27;87.77;33065.19;5030428;28;20055;-68
2023/11/11 01:37:05;;;;;;;12.75;1.10;;;;;;;-146.27;87.83;33108.84;5027838;28;20028;-68
2023/11/11 01:39:31;;;;;;;6.03;0.95;;;;;;;-146.27;88.26;33096.94;5029998;28;20025;-68
2023/11/11 01:41:57;;;;;;;4.47;0.80;;;;;;;-146.27;87.91;33096.94;5038595;28;20029;-68
2023/11/11 01:44:23;;;;;;;6.40;1.02;;;;;;;-146.27;88.54;33100.91;5031817;28;20424;-68
2023/11/11 01:46:50;;;;;;;6.78;0.60;;;;;;;-146.27;88.64;33083.06;5037969;28;20021;-68
2023/11/11 01:49:17;;;;;;;4.13;0.75;;;;;;;-146.27;88.46;33120.75;5031632;28;20093;-67
2023/11/11 01:51:44;;;;;;;7.00;0.90;;;;;;;-146.27;88.38;33112.81;5019110;28;20045;-67
2023/11/11 01:54:11;;;;;;;5.43;1.00;;;;;;;-146.27;88.21;33083.06;5031057;28;20026;-68
2023/11/11 01:56:41;;;;;;;17.73;1.90;;;;;;;-146.27;88.62;33063.22;5036927;28;20033;-68
2023/11/11 01:59:06;;;;;;;4.55;1.50;;;;;;;-146.27;88.74;33059.25;5017859;28;20473;-67
2023/11/11 02:01:32;;;;;;;6.78;1.02;;;;;;;-146.27;88.61;33077.09;5031076;28;20033;-68
2023/11/11 02:03:58;;;;;;;10.90;1.63;;;;;;;-146.27;88.48;33049.31;5028338;28;20075;-68
2023/11/11 02:06:26;;;;;;;7.15;1.65;;;;;;;-146.27;88.57;33043.38;5026969;28;20017;-67
2023/11/11 02:08:52;;;;;;;3.80;1.50;;;;;;;-146.27;88.32;33009.66;5018459;28;20033;-67
2023/11/11 02:11:17;;;;;;;6.97;1.38;;;;;;;-146.27;88.31;33092.97;5029795;28;20021;-68
2023/11/11 02:13:43;;;;;;;3.45;1.73;;;;;;;-146.27;88.21;33075.13;5042392;28;20132;-68
2023/11/11 02:16:09;;;;;;;9.07;2.38;;;;;;;-146.27;88.22;33081.06;5040167;28;22720;-68
2023/11/11 02:18:34;;;;;;;6.63;1.52;;;;;;;-146.27;88.26;33077.09;5037525;28;20408;-67
2023/11/11 02:21:00;;;;;;;8.50;1.75;;;;;;;-146.27;88.48;33073.13;5027764;28;20502;-67
2023/11/11 02:23:36;;;;;;;6.85;2.50;;;;;;;-146.27;88.55;33110.81;5031855;28;20104;-67
2023/11/11 02:26:03;;;;;;;5.57;1.20;;;;;;;-146.27;88.55;33069.16;5032245;28;20017;-67
2023/11/11 02:28:29;;;;;;;11.43;2.83;;;;;;;-146.27;87.94;33061.22;5031487;28;20029;-67
2023/11/11 02:30:55;;;;;;;9.07;1.23;;;;;;;-146.27;88.05;32995.75;5032631;28;20040;-67
2023/11/11 02:33:21;;;;;;;3.70;1.25;;;;;;;-146.27;87.10;32995.75;5028556;28;20026;-67
2023/11/11 02:35:47;;;;;;;3.72;1.30;;;;;;;-146.27;86.91;32983.84;5023308;28;20033;-67
2023/11/11 02:38:12;;;;;;;5.85;1.08;;;;;;;-146.27;86.34;32993.78;5045878;28;20066;-68
2023/11/11 02:40:39;;;;;;;4.00;0.93;;;;;;;-146.27;86.25;32983.84;5049516;28;20087;-67
2023/11/11 02:43:05;;;;;;;8.35;1.10;;;;;;;-146.27;85.93;33009.66;5040321;28;20442;-68
2023/11/11 02:45:31;;;;;;;5.03;0.88;;;;;;;-146.27;85.99;32946.16;5024194;28;20032;-68
2023/11/11 02:47:57;;;;;;;7.68;1.10;;;;;;;-146.27;85.64;32934.25;5029194;28;20111;-68
2023/11/11 02:50:23;;;;;;;3.38;1.00;;;;;;;-146.27;85.32;33001.72;5044555;28;20535;-68
2023/11/11 02:52:49;;;;;;;6.55;1.08;;;;;;;-146.27;85.40;32964.00;5024729;28;20057;-68
2023/11/11 02:55:15;;;;;;;3.80;1.52;;;;;;;-146.27;85.76;33003.69;5035695;28;20437;-67
2023/11/11 02:57:42;;;;;;;12.07;1.50;;;;;;;-146.27;86.21;33094.97;5030028;28;20578;-68
2023/11/11 03:00:10;;;;;;;5.35;0.82;;;;;;;-146.27;86.29;33057.25;5026267;28;20119;-68
2023/11/11 03:02:37;;;;;;;2.00;0.80;;;;;;;-146.27;85.81;33033.44;5034119;28;20021;-68
2023/11/11 03:05:03;;;;;;;10.07;1.38;;;;;;;-146.27;85.61;32997.75;5038899;28;20060;-68
2023/11/11 03:07:28;;;;;;;4.80;1.15;;;;;;;-146.27;85.90;33029.47;5038410;28;20037;-67
2023/11/11 03:09:54;;;;;;;8.95;1.55;;;;;;;-146.27;85.64;33083.06;5036621;28;20028;-66
2023/11/11 03:12:19;;;;;;;4.22;1.00;;;;;;;-146.27;85.67;33077.09;5047526;28;20035;-68
2023/11/11 03:14:45;;;;;;;2.88;1.40;;;;;;;-146.27;85.76;33063.22;5027308;28;20025;-67
2023/11/11 03:17:10;;;;;;;5.70;1.40;;;;;;;-146.27;84.95;33094.97;5024507;28;20041;-68
2023/11/11 03:19:35;;;;;;;6.93;1.80;;;;;;;-146.27;85.00;33071.16;5012546;28;20114;-68
2023/11/11 03:22:01;;;;;;;7.53;1.55;;;;;;;-146.27;84.81;33063.22;5027718;28;20025;-67
2023/11/11 03:24:27;;;;;;;5.13;1.20;;;;;;;-146.27;84.21;33075.13;5032477;28;20029;-67
2023/11/11 03:26:52;;;;;;;2.50;0.45;;;;;;;-146.27;83.15;33065.19;5023440;28;20108;-67
2023/11/11 03:29:18;;;;;;;2.75;0.82;;;;;;;-146.27;82.69;33118.75;5019182;28;20531;-67
2023/11/11 03:31:43;;;;;;;2.38;0.70;;;;;;;-146.27;83.32;33116.78;5011529;28;20079;-67
2023/11/11 03:34:08;;;;;;;5.88;1.05;;;;;;;-146.27;83.36;33112.81;5017489;28;20083;-67
2023/11/11 03:36:33;;;;;;;0.82;0.63;;;;;;;-146.27;83.54;33071.16;5022828;28;20084;-67
2023/11/11 03:38:59;;;;;;;4.13;0.88;;;;;;;-146.27;83.43;33100.91;5030155;28;20035;-67
2023/11/11 03:41:24;;;;;;;2.08;1.10;;;;;;;-146.27;83.43;33089.00;5030642;28;20067;-68
2023/11/11 03:43:50;;;;;;;3.65;0.88;;;;;;;-146.27;83.28;33114.78;5014546;28;20056;-66
2023/11/11 03:46:15;;;;;;;4.53;0.95;;;;;;;-146.27;83.83;32948.13;5025377;28;20022;-68
2023/11/11 03:48:40;;;;;;;2.83;1.23;;;;;;;-146.27;83.39;33096.94;5016461;28;20397;-68
2023/11/11 03:51:06;;;;;;;1.17;0.80;;;;;;;-146.27;83.71;33077.09;5023127;28;20493;-67
2023/11/11 03:53:31;;;;;;;5.95;0.93;;;;;;;-146.27;83.96;33083.06;5035151;28;20124;-68
2023/11/11 03:55:57;;;;;;;0.93;0.80;;;;;;;-146.27;84.30;33057.25;5033563;28;20108;-69
2023/11/11 03:58:22;;;;;;;8.07;1.45;;;;;;;-146.27;84.53;33085.03;5018919;28;20505;-66
2023/11/11 04:00:48;;;;;;;6.10;1.30;;;;;;;-146.27;84.92;33057.25;5024622;28;20879;-68
2023/11/11 04:03:14;;;;;;;4.10;1.23;;;;;;;-146.27;85.08;33057.25;5022200;28;20033;-68
2023/11/11 04:05:39;;;;;;;2.85;1.10;;;;;;;-146.27;85.13;33100.91;5029711;28;20020;-66
2023/11/11 04:08:05;;;;;;;10.20;1.92;;;;;;;-146.27;85.21;33073.13;5030489;28;20040;-68
2023/11/11 04:10:30;;;;;;;12.57;1.60;;;;;;;-146.27;85.26;33077.09;5044915;28;20024;-67
2023/11/11 04:13:00;;;;;;;8.30;1.90;;;;;;;-146.27;85.38;33045.34;5041772;28;20029;-68
2023/11/11 04:15:26;;;;;;;5.63;1.65;;;;;;;-146.27;84.96;33081.06;5027522;28;20029;-68
2023/11/11 04:17:51;;;;;;;7.90;1.75;;;;;;;-146.27;84.93;33128.69;5031471;28;20048;-67
2023/11/11 04:20:17;;;;;;;7.60;1.58;;;;;;;-146.27;85.51;33017.56;5015215;28;20026;-68
2023/11/11 04:22:43;;;;;;;7.82;1.70;;;;;;;-146.27;84.79;33069.16;5028124;28;20037;-68
2023/11/11 04:25:10;;;;;;;6.93;2.05;;;;;;;-146.27;84.28;33053.28;5025384;28;20366;-68
2023/11/11 04:27:36;;;;;;;7.90;1.70;;;;;;;-146.27;83.44;33017.56;5040511;28;20032;-67
2023/11/11 04:30:03;;;;;;;7.10;1.67;;;;;;;-146.27;83.15;33025.50;5046215;28;20091;-67
2023/11/11 04:32:29;;;;;;;3.55;1.35;;;;;;;-146.27;82.55;33045.34;5030317;28;20477;-67
2023/11/11 04:34:54;;;;;;;3.42;1.40;;;;;;;-146.27;82.25;32926.31;5024979;28;20135;-68
2023/11/11 04:37:20;;;;;;;5.78;1.50;;;;;;;-146.27;81.76;32975.91;5023814;28;20033;-68
2023/11/11 04:39:46;;;;;;;6.25;1.25;;;;;;;-146.27;80.95;32977.91;5028936;28;20498;-67
2023/11/11 04:42:15;;;;;;;7.13;1.75;;;;;;;-146.27;81.01;32966.00;5024971;28;20030;-69
2023/11/11 04:44:44;;;;;;;3.35;1.23;;;;;;;-146.27;80.32;32993.78;5018986;28;20037;-67
2023/11/11 04:47:10;;;;;;;5.13;1.50;;;;;;;-146.27;80.75;32979.88;5044466;28;20043;-67
2023/11/11 04:49:36;;;;;;;8.32;1.88;;;;;;;-146.27;80.37;32946.16;5034031;28;20029;-68
2023/11/11 04:52:01;;;;;;;5.45;1.20;;;;;;;-146.27;80.02;32962.03;5037068;28;20021;-67
2023/11/11 04:54:27;;;;;;;7.85;2.05;;;;;;;-146.27;80.08;32981.88;5027906;28;20040;-67
2023/11/11 04:56:54;;;;;;;2.05;0.88;;;;;;;-146.27;78.41;32946.16;5038184;28;20167;-67
2023/11/11 04:59:19;;;;;;;3.20;0.80;;;;;;;-146.27;78.20;32902.50;5029708;28;20025;-67
2023/11/11 05:01:44;;;;;;;1.75;0.50;;;;;;;-146.27;78.05;32910.44;5035835;28;20024;-66
2023/11/11 05:04:11;;;;;;;1.65;0.32;;;;;;;-146.27;77.68;32950.13;5022562;28;20580;-68
2023/11/11 05:06:36;;;;;;;0.82;0.40;;;;;;;-146.27;78.33;32960.03;5024179;28;20060;-68
2023/11/11 05:09:04;;;;;;;4.05;0.50;;;;;;;-146.27;78.74;32956.06;5024675;28;20026;-67
2023/11/11 05:11:30;;;;;;;1.35;0.22;;;;;;;-146.27;78.68;33005.69;5038656;28;20037;-67
2023/11/11 05:13:56;;;;;;;0.70;0.30;;;;;;;-146.27;79.44;33029.47;5028016;28;20030;-67
2023/11/11 05:16:26;;;;;;;1.35;0.20;;;;;;;-146.27;79.20;32993.78;5045441;28;20024;-68
2023/11/11 05:18:53;;;;;;;1.73;0.20;;;;;;;-146.27;79.99;33043.38;5027925;28;20120;-67
2023/11/11 05:21:19;;;;;;;5.80;0.57;;;;;;;-146.27;80.58;33037.41;5024114;28;20481;-68
2023/11/11 05:23:46;;;;;;;0.20;0.20;;;;;;;-146.27;81.14;33102.88;5028115;28;20396;-66
2023/11/11 05:26:13;;;;;;;4.68;0.32;;;;;;;-146.27;80.58;33069.16;5013658;28;20025;-67
2023/11/11 05:28:40;;;;;;;1.38;0.28;;;;;;;-146.27;80.48;33083.06;5013925;28;20072;-66
2023/11/11 05:31:06;;;;;;;3.60;0.30;;;;;;;-146.27;79.71;33029.47;5015255;28;20049;-66
2023/11/11 05:33:32;;;;;;;0.25;0.25;;;;;;;-146.27;81.04;33069.16;5032245;28;20381;-69
2023/11/11 05:35:57;;;;;;;2.72;0.55;;;;;;;-146.27;81.05;33092.97;5031308;28;20036;-66
2023/11/11 05:38:23;;;;;;;0.80;0.28;;;;;;;-146.27;81.19;33110.81;5024372;28;20025;-66
2023/11/11 05:40:48;;;;;;;0.73;0.30;;;;;;;-146.27;82.01;33134.63;5025430;28;20025;-69
2023/11/11 05:43:14;;;;;;;1.52;0.20;;;;;;;-146.27;82.22;33096.94;5022444;28;20025;-67
2023/11/11 05:45:39;;;;;;;0.20;0.20;;;;;;;-146.27;82.55;33122.72;5041856;28;20033;-66
2023/11/11 05:48:05;;;;;;;1.65;0.30;;;;;;;-146.27;83.18;33136.63;5013974;28;20490;-68
2023/11/11 05:50:30;;;;;;;1.17;0.95;;;;;;;-146.27;83.27;33087.03;5025371;28;20556;-68
2023/11/11 05:52:56;;;;;;;1.13;0.80;;;;;;;-146.27;83.21;33128.69;5020440;28;20021;-67
2023/11/11 05:55:21;;;;;;;1.20;0.60;;;;;;;-146.27;83.28;33152.50;5034533;28;20053;-67
2023/11/11 05:57:47;;;;;;;1.58;0.57;;;;;;;-146.27;83.83;33114.78;5033054;28;20551;-67
2023/11/11 06:00:13;;;;;;;1.20;0.70;;;;;;;-146.27;83.90;33112.81;5031255;28;20108;-67
2023/11/11 06:02:39;;;;;;;3.47;0.57;;;;;;;-146.27;83.85;33089.00;5019360;28;20064;-67
2023/11/11 06:05:05;;;;;;;0.85;0.40;;;;;;;-146.27;83.93;33094.97;5026383;28;20509;-67
2023/11/11 06:07:31;;;;;;;1.60;0.60;;;;;;;-146.27;84.03;33112.81;5039044;28;20107;-68
2023/11/11 06:09:56;;;;;;;4.97;1.65;;;;;;;-146.27;83.87;33116.78;5041973;28;20025;-66
2023/11/11 06:12:22;;;;;;;4.82;1.27;;;;;;;-146.27;83.87;33089.00;5036029;28;20028;-67
2023/11/11 06:14:49;;;;;;;3.75;0.93;;;;;;;-146.27;84.21;33116.78;5040421;28;20033;-69
2023/11/11 06:17:15;;;;;;;7.75;1.35;;;;;;;-146.27;84.13;33033.44;5039257;28;20045;-66
2023/11/11 06:19:40;;;;;;;3.65;1.83;;;;;;;-146.27;84.44;33120.75;5031640;28;20038;-66
2023/11/11 06:22:07;;;;;;;8.40;1.83;;;;;;;-146.27;84.58;33108.84;5040529;28;20032;-68
2023/11/11 06:24:32;;;;;;;7.07;2.38;;;;;;;-146.27;84.84;33091.00;5028740;28;20040;-66
2023/11/11 06:26:58;;;;;;;9.15;2.30;;;;;;;-146.27;84.75;33061.22;5025582;28;20385;-66
2023/11/11 06:29:23;;;;;;;13.80;2.90;;;;;;;-146.27;84.99;33029.47;5030860;28;20026;-67
2023/11/11 06:31:52;;;;;;;12.60;2.50;;;;;;;-146.27;84.75;32999.72;5033183;28;20463;-67
2023/11/11 06:34:19;;;;;;;4.35;2.20;;;;;;;-146.27;84.01;32993.78;5025602;28;20033;-67
2023/11/11 06:36:44;;;;;;;4.68;2.00;;;;;;;-146.27;83.83;32918.38;5030855;28;20025;-66
2023/11/11 06:39:09;;;;;;;7.50;2.20;;;;;;;-146.27;83.00;32940.22;5042946;28;20708;-66
2023/11/11 06:41:35;;;;;;;9.30;2.33;;;;;;;-146.27;82.30;32936.25;5039999;28;20511;-66
2023/11/11 06:44:00;;;;;;;6.50;2.03;;;;;;;-146.27;82.19;32882.66;5020645;28;20112;-66
2023/11/11 06:46:25;;;;;;;9.55;2.50;;;;;;;-146.27;82.04;32894.56;5035588;28;20021;-68
2023/11/11 06:48:51;;;;;;;7.93;1.92;;;;;;;-146.27;80.63;32884.66;5032116;28;20025;-68
2023/11/11 06:51:17;;;;;;;8.93;1.73;;;;;;;-146.27;80.37;32918.38;5045173;28;20029;-67
2023/11/11 06:53:42;;;;;;;16.08;2.40;;;;;;;-146.27;80.44;32880.69;5038497;28;20061;-66
2023/11/11 06:56:07;;;;;;;8.32;2.00;;;;;;;-146.27;79.93;32835.06;5029356;28;20080;-67
2023/11/11 06:58:33;;;;;;;6.78;2.15;;;;;;;-146.27;79.23;32850.94;5032095;28;20021;-68
2023/11/11 07:01:01;;;;;;;3.72;1.73;;;;;;;-146.27;79.39;32831.09;5037686;28;20504;-68
2023/11/11 07:03:28;;;;;;;4.82;1.70;;;;;;;-146.27;78.95;32795.38;5021043;28;20029;-67
2023/11/11 07:05:56;;;;;;;11.48;1.88;;;;;;;-146.27;78.86;32831.09;5041460;28;20045;-66
2023/11/11 07:08:21;;;;;;;5.25;1.83;;;;;;;-146.27;78.30;32827.13;5030691;28;20039;-67
2023/11/11 07:10:46;;;;;;;6.63;2.05;;;;;;;-146.27;77.99;32843.00;5048935;28;20112;-70
2023/11/11 07:13:12;;;;;;;8.77;2.17;;;;;;;-146.27;77.89;32841.00;5042576;28;20104;-68
2023/11/11 07:15:37;;;;;;;8.55;1.88;;;;;;;-146.27;77.95;32850.94;5039736;28;20043;-68
2023/11/11 07:18:07;;;;;;;7.65;1.77;;;;;;;-146.27;78.15;32833.06;5048348;28;20048;-68
2023/11/11 07:20:32;;;;;;;8.18;2.15;;;;;;;-146.27;77.67;32876.72;5044905;28;20025;-68
2023/11/11 07:22:59;;;;;;;5.95;1.75;;;;;;;-146.27;77.19;32846.97;5048283;28;20089;-68
2023/11/11 07:25:26;;;;;;;5.55;1.60;;;;;;;-146.27;77.27;32846.97;5051777;28;20020;-68
2023/11/11 07:27:52;;;;;;;9.40;1.73;;;;;;;-146.27;77.34;32827.13;5031723;28;20108;-67
2023/11/11 07:30:17;;;;;;;5.50;1.60;;;;;;;-146.27;77.37;32900.53;5029956;28;20156;-68
2023/11/11 07:32:46;;;;;;;4.10;2.05;;;;;;;-146.27;77.34;32843.00;5031036;28;20040;-67
2023/11/11 07:35:12;;;;;;;7.47;1.90;;;;;;;-146.27;77.50;32819.19;5027523;28;20038;-67
2023/11/11 07:37:46;;;;;;;11.38;2.03;;;;;;;-146.27;77.56;32886.63;5036927;28;20024;-66
2023/11/11 07:40:14;;;;;;;5.25;1.80;;;;;;;-146.27;77.09;32858.88;5020389;28;20030;-67
2023/11/11 07:42:40;;;;;;;2.92;1.42;;;;;;;-146.27;77.06;32835.06;5024289;28;20078;-66
2023/11/11 07:45:06;;;;;;;3.58;1.67;;;;;;;-146.27;77.29;32837.03;5031069;28;20029;-69
2023/11/11 07:47:31;;;;;;;7.60;1.58;;;;;;;-146.27;77.09;32823.16;5026841;28;20079;-67
2023/11/11 07:49:57;;;;;;;11.95;2.45;;;;;;;-146.27;77.16;32850.94;5028179;28;20075;-68
2023/11/11 07:52:23;;;;;;;6.50;1.70;;;;;;;-146.27;77.42;32823.16;5031838;28;20033;-69
2023/11/11 07:54:48;;;;;;;7.95;1.92;;;;;;;-146.27;77.33;32852.91;5027701;28;20025;-69
2023/11/11 07:57:15;;;;;;;4.95;2.17;;;;;;;-146.27;77.18;32801.34;5028675;28;20104;-67
2023/11/11 07:59:43;;;;;;;8.23;1.50;;;;;;;-146.27;77.41;32743.81;5028938;28;20998;-69
2023/11/11 08:02:15;;;;;;;7.13;1.13;;;;;;;-146.27;77.32;32759.66;5025366;28;20394;-68
2023/11/11 08:04:41;;;;;;;3.78;1.45;;;;;;;-146.27;77.63;32771.56;5031223;28;20036;-69
2023/11/11 08:07:09;;;;;;;8.20;1.40;;;;;;;-146.27;77.75;32670.41;5030962;28;20374;-69
2023/11/11 08:09:35;;;;;;;5.40;1.75;;;;;;;-146.27;78.17;32652.53;5029936;28;20028;-69
2023/11/11 08:12:00;;;;;;;2.33;1.20;;;;;;;-146.27;78.05;32668.41;5026771;28;20104;-67
2023/11/11 08:14:26;;;;;;;7.38;1.60;;;;;;;-146.27;78.54;32648.56;5045156;28;20037;-68
2023/11/11 08:16:51;;;;;;;2.90;1.40;;;;;;;-146.27;78.72;32648.56;5029146;28;20049;-69
2023/11/11 08:19:18;;;;;;;10.60;1.83;;;;;;;-146.27;78.38;32684.28;5036677;28;20028;-66
2023/11/11 08:21:44;;;;;;;9.63;1.67;;;;;;;-146.27;78.23;32630.72;5028200;28;20385;-68
2023/11/11 08:24:11;;;;;;;5.13;1.50;;;;;;;-146.27;77.74;32604.94;5030342;28;20025;-67
2023/11/11 08:26:36;;;;;;;5.63;1.88;;;;;;;-146.27;78.20;32626.75;5036768;28;20021;-68
2023/11/11 08:29:02;;;;;;;8.23;1.70;;;;;;;-146.27;78.43;32606.91;5049113;28;20087;-68
2023/11/11 08:31:27;;;;;;;6.97;1.48;;;;;;;-146.27;79.04;32597.00;5036272;28;20559;-68
2023/11/11 08:33:53;;;;;;;6.95;1.48;;;;;;;-146.27;79.25;32652.53;5037751;28;20470;-68
2023/11/11 08:36:19;;;;;;;5.13;1.05;;;;;;;-146.27;78.62;32739.84;5031346;28;20035;-68
2023/11/11 08:38:44;;;;;;;13.05;1.73;;;;;;;-146.27;77.75;32767.59;5029922;28;20033;-68
2023/11/11 08:41:12;;;;;;;2.42;0.60;;;;;;;-146.27;77.89;32743.81;5021002;28;20033;-67
2023/11/11 08:43:37;;;;;;;3.70;0.65;;;;;;;-146.27;79.18;32868.78;5025969;28;20025;-68
2023/11/11 08:46:03;;;;;;;5.10;1.13;;;;;;;-146.27;79.29;32791.41;5045126;28;20063;-68
2023/11/11 08:48:30;;;;;;;5.25;1.15;;;;;;;-146.27;80.35;32854.91;5034283;28;20029;-68
2023/11/11 08:50:56;;;;;;;1.40;0.80;;;;;;;-146.27;81.05;32906.47;5029972;28;20537;-68
2023/11/11 08:53:21;;;;;;;5.28;1.23;;;;;;;-146.27;81.33;32906.47;5027678;28;20133;-69
2023/11/11 08:55:47;;;;;;;2.22;1.02;;;;;;;-146.27;81.36;32898.53;5028911;28;20037;-68
2023/11/11 08:58:13;;;;;;;4.47;1.25;;;;;;;-146.27;81.68;32922.34;5036704;28;20025;-68
2023/11/11 09:00:40;;;;;;;5.35;1.27;;;;;;;-146.27;82.03;32916.41;5037630;28;20088;-67
2023/11/11 09:03:06;;;;;;;3.17;1.10;;;;;;;-146.27;82.49;32886.63;5039498;28;20480;-68
2023/11/11 09:05:31;;;;;;;4.50;0.93;;;;;;;-146.27;82.61;32934.25;5037116;28;20044;-68
2023/11/11 09:07:57;;;;;;;4.88;0.82;;;;;;;-146.27;82.53;32898.53;5026900;28;20514;-67
2023/11/11 09:10:22;;;;;;;2.05;0.90;;;;;;;-146.27;83.04;32981.88;5025902;28;20398;-67
2023/11/11 09:12:48;;;;;;;3.15;1.08;;;;;;;-146.27;83.56;32981.88;5033700;28;20063;-68
2023/11/11 09:15:16;;;;;;;2.53;1.08;;;;;;;-146.27;84.17;32934.25;5037360;28;20485;-67
2023/11/11 09:17:42;;;;;;;3.33;0.90;;;;;;;-146.27;84.09;32985.84;5031649;28;20056;-68
2023/11/11 09:20:09;;;;;;;6.28;1.17;;;;;;;-146.27;83.69;32958.06;5024793;28;20033;-68
2023/11/11 09:22:35;;;;;;;1.88;0.70;;;;;;;-146.27;84.01;32985.84;5026618;28;20131;-69
2023/11/11 09:25:01;;;;;;;3.80;0.60;;;;;;;-146.27;83.80;32985.84;5026920;28;20048;-67
2023/11/11 09:27:28;;;;;;;1.10;0.65;;;;;;;-146.27;84.13;32973.94;5029577;28;20081;-68
2023/11/11 09:29:54;;;;;;;1.73;0.77;;;;;;;-146.27;83.99;32962.03;5027959;28;20025;-68
2023/11/11 09:32:20;;;;;;;2.47;0.98;;;;;;;-146.27;84.40;33009.66;5023312;28;20555;-69
2023/11/11 09:34:45;;;;;;;1.70;0.70;;;;;;;-146.27;84.64;32981.88;5026191;28;20553;-68
2023/11/11 09:37:11;;;;;;;1.33;0.52;;;;;;;-146.27;85.13;32969.97;5020293;28;20100;-69
2023/11/11 09:39:36;;;;;;;7.93;1.20;;;;;;;-146.27;85.45;32993.78;5024684;28;20078;-70
2023/11/11 09:42:07;;;;;;;3.08;0.80;;;;;;;-146.27;85.70;32973.94;5027531;28;20037;-67
2023/11/11 09:44:34;;;;;;;3.10;1.00;;;;;;;-146.27;85.83;32962.03;5028320;28;20048;-70
2023/11/11 09:47:04;;;;;;;0.95;0.65;;;;;;;-146.27;86.04;32910.44;5025920;28;20018;-69
2023/11/11 09:49:30;;;;;;;1.98;0.73;;;;;;;-146.27;86.11;32898.53;5030646;28;20508;-68
2023/11/11 09:51:59;;;;;;;6.88;1.40;;;;;;;-146.27;86.43;32952.09;5029804;28;20021;-70
2023/11/11 09:54:26;;;;;;;1.35;0.82;;;;;;;-146.27;86.66;32958.06;5029075;28;20036;-70
2023/11/11 09:56:53;;;;;;;2.58;1.02;;;;;;;-146.27;86.89;32906.47;5018825;28;20212;-70
2023/11/11 09:59:21;;;;;;;3.47;1.08;;;;;;;-146.27;86.98;32878.72;5033536;28;20091;-71
2023/11/11 10:01:46;;;;;;;4.53;1.25;;;;;;;-146.27;87.10;32811.25;5034239;28;20107;-71
2023/11/11 10:04:15;;;;;;;5.25;1.23;;;;;;;-146.27;87.34;32801.34;5032290;28;20036;-70
2023/11/11 10:06:44;;;;;;;6.03;1.60;;;;;;;-146.27;87.31;32759.66;5032805;28;20033;-69
2023/11/11 10:09:11;;;;;;;7.47;1.45;;;;;;;-146.27;87.47;32680.31;5033045;28;20037;-69
2023/11/11 10:11:37;;;;;;;3.97;1.88;;;;;;;-146.27;87.22;32634.69;5033379;28;20029;-69
2023/11/11 10:14:03;;;;;;;4.55;1.95;;;;;;;-146.27;87.11;32640.66;5031702;28;20378;-68
2023/11/11 10:16:29;;;;;;;4.30;1.10;;;;;;;-146.27;86.83;32589.06;5030218;28;20116;-70
2023/11/11 10:19:01;;;;;;;4.57;1.10;;;;;;;-146.27;87.04;32521.63;5022441;28;20640;-71
2023/11/11 10:21:26;;;;;;;5.50;1.30;;;;;;;-146.27;87.20;32368.88;5013867;28;20030;-70
2023/11/11 10:23:55;;;;;;;3.70;1.40;;;;;;;-146.27;87.46;32251.84;5032325;28;20504;-68
2023/11/11 10:26:22;;;;;;;2.53;1.23;;;;;;;-146.27;86.80;32232.00;5032594;28;20366;-69
2023/11/11 10:28:49;;;;;;;7.00;2.42;;;;;;;-146.27;86.10;32234.00;5031803;28;20037;-69
2023/11/11 10:31:15;;;;;;;9.40;1.48;;;;;;;-146.27;84.42;32343.09;5034966;28;20199;-70
2023/11/11 10:33:42;;;;;;;3.47;1.10;;;;;;;-146.27;83.63;32372.84;5030671;28;20045;-70
2023/11/11 10:36:08;;;;;;;4.80;1.42;;;;;;;-146.27;83.61;32356.97;5030953;28;20112;-70
2023/11/11 10:38:34;;;;;;;7.75;1.23;;;;;;;-146.27;82.28;32497.81;5031289;28;20775;-72
2023/11/11 10:41:00;;;;;;;1.88;1.00;;;;;;;-146.27;80.83;32624.78;5030936;28;20104;-70
2023/11/11 10:43:28;;;;;;;3.40;0.70;;;;;;;-146.27;80.11;32634.69;5048741;28;20385;-69
2023/11/11 10:45:56;;;;;;;2.92;1.05;;;;;;;-146.27;79.93;32676.34;5032454;28;20021;-69
2023/11/11 10:48:23;;;;;;;4.88;0.73;;;;;;;-146.27;78.91;32670.41;5032419;28;20098;-69
2023/11/11 10:50:51;;;;;;;1.30;0.77;;;;;;;-146.27;78.53;32640.66;5032192;28;20045;-70
2023/11/11 10:53:17;;;;;;;1.67;0.63;;;;;;;-146.27;78.41;32708.09;5030317;28;20033;-70
2023/11/11 10:55:49;;;;;;;0.52;0.52;;;;;;;-146.27;77.27;32777.53;5030960;28;20025;-70
2023/11/11 10:58:18;;;;;;;1.75;0.90;;;;;;;-146.27;76.98;32716.03;5031250;28;20029;-69
2023/11/11 11:00:46;;;;;;;3.15;0.90;;;;;;;-146.27;76.99;32763.63;5032161;28;20029;-68
2023/11/11 11:03:12;;;;;;;3.42;0.80;;;;;;;-146.27;77.18;32739.84;5032495;28;20025;-69
2023/11/11 11:05:57;;;;;;;2.28;0.80;;;;;;;-146.27;77.10;32775.53;5028322;28;20017;-69
2023/11/11 11:08:41;;;;;;;1.65;0.60;;;;;;;-146.27;77.26;32739.84;5029027;28;20033;-70
2023/11/11 11:11:07;;;;;;;0.95;0.63;;;;;;;-146.27;77.67;32630.72;5035255;28;20400;-74
2023/11/11 11:13:36;;;;;;;2.42;1.15;;;;;;;-146.27;77.91;32640.66;5036703;28;20036;-70